Time;durP1;ratioP1;P1;durP2;ratioP2;P2;SDS_P1;SDS_P2;PMS_P1;PMS_P2;Temp;Humidity;BMP_temperature;BMP_pressure;BME280_temperature;BME280_humidity;BME280_pressure;Samples;Min_cycle;Max_cycle;Signal;HPM_P1;HPM_P2
2024/01/14 00:00:49;;;;;;;8.25;3.53;;;;;;;;;;4982550;28;96111;-80
2024/01/14 00:03:16;;;;;;;8.88;3.60;;;;;;;;;;4980297;28;92939;-80
2024/01/14 00:05:42;;;;;;;9.73;3.97;;;;;;;;;;4981609;28;92320;-80
2024/01/14 00:08:09;;;;;;;13.40;4.63;;;;;;;;;;4983120;28;92601;-79
2024/01/14 00:10:36;;;;;;;11.15;4.15;;;;;;;;;;4985790;28;93262;-80
2024/01/14 00:13:02;;;;;;;9.75;3.75;;;;;;;;;;5003368;27;92644;-78
2024/01/14 00:15:29;;;;;;;8.20;4.20;;;;;;;;;;5002416;28;92379;-80
2024/01/14 00:17:56;;;;;;;7.35;4.00;;;;;;;;;;5003250;27;92466;-79
2024/01/14 00:20:22;;;;;;;8.50;4.10;;;;;;;;;;4983752;28;94340;-79
2024/01/14 00:22:49;;;;;;;7.45;3.80;;;;;;;;;;4981400;28;95130;-81
2024/01/14 00:25:17;;;;;;;9.90;4.20;;;;;;;;;;4965009;28;92799;-80
2024/01/14 00:27:44;;;;;;;8.43;3.97;;;;;;;;;;4964374;28;94843;-80
2024/01/14 00:30:11;;;;;;;8.13;4.20;;;;;;;;;;4982148;28;92750;-79
2024/01/14 00:32:38;;;;;;;8.63;4.45;;;;;;;;;;4967082;28;92251;-80
2024/01/14 00:35:04;;;;;;;9.23;4.20;;;;;;;;;;4974432;28;92693;-80
2024/01/14 00:37:31;;;;;;;8.15;4.22;;;;;;;;;;4960945;28;92711;-79
2024/01/14 00:39:58;;;;;;;8.10;4.47;;;;;;;;;;4973134;28;94868;-80
2024/01/14 00:42:25;;;;;;;9.15;4.68;;;;;;;;;;4981309;28;93127;-79
2024/01/14 00:44:51;;;;;;;11.80;5.20;;;;;;;;;;4981850;28;92511;-80
2024/01/14 00:47:18;;;;;;;9.05;4.68;;;;;;;;;;4978683;28;95076;-79
2024/01/14 00:49:45;;;;;;;9.68;4.88;;;;;;;;;;4981490;28;92749;-81
2024/01/14 00:52:12;;;;;;;10.38;5.07;;;;;;;;;;4980964;28;93440;-79
2024/01/14 00:54:38;;;;;;;9.70;4.82;;;;;;;;;;4983445;28;92962;-79
2024/01/14 00:57:07;;;;;;;9.35;4.93;;;;;;;;;;4964018;28;92259;-79
2024/01/14 00:59:34;;;;;;;10.07;5.38;;;;;;;;;;4981557;28;93269;-79
2024/01/14 01:02:00;;;;;;;10.82;5.25;;;;;;;;;;4981357;28;92768;-79
2024/01/14 01:04:27;;;;;;;11.70;5.70;;;;;;;;;;4980980;28;91951;-79
2024/01/14 01:06:54;;;;;;;;;;;;;;;;;;4982002;28;92615;-79
2024/01/14 01:09:21;;;;;;;9.07;5.10;;;;;;;;;;4981038;28;107491;-79
2024/01/14 01:11:47;;;;;;;9.65;4.93;;;;;;;;;;4990126;28;94539;-78
2024/01/14 01:14:15;;;;;;;10.20;5.45;;;;;;;;;;4999967;28;94739;-79
2024/01/14 01:16:41;;;;;;;10.30;5.30;;;;;;;;;;4986509;27;93390;-79
2024/01/14 01:19:08;;;;;;;10.02;5.20;;;;;;;;;;4981005;28;92902;-79
2024/01/14 01:21:34;;;;;;;10.88;5.53;;;;;;;;;;4980564;28;94805;-79
2024/01/14 01:24:01;;;;;;;9.70;5.43;;;;;;;;;;4982139;28;92033;-78
2024/01/14 01:26:28;;;;;;;11.23;5.65;;;;;;;;;;4979687;28;94585;-80
2024/01/14 01:28:54;;;;;;;10.52;5.40;;;;;;;;;;4981382;28;92102;-79
2024/01/14 01:31:21;;;;;;;10.00;5.45;;;;;;;;;;4980626;28;92495;-79
2024/01/14 01:34:03;;;;;;;9.77;5.38;;;;;;;;;;4980365;28;95320;-80
2024/01/14 01:36:30;;;;;;;11.25;5.35;;;;;;;;;;4977809;28;95381;-79
2024/01/14 01:38:57;;;;;;;10.07;5.50;;;;;;;;;;4982708;28;92337;-79
2024/01/14 01:41:23;;;;;;;10.82;5.60;;;;;;;;;;4979812;28;94443;-79
2024/01/14 01:43:50;;;;;;;10.82;5.72;;;;;;;;;;4960872;28;92643;-79
2024/01/14 01:46:16;;;;;;;11.45;5.57;;;;;;;;;;4962226;28;92460;-79
2024/01/14 01:48:43;;;;;;;11.05;5.65;;;;;;;;;;4975773;28;92783;-79
2024/01/14 01:51:10;;;;;;;;;;;;;;;;;;4971897;28;92205;-80
2024/01/14 01:53:37;;;;;;;10.68;5.22;;;;;;;;;;4983422;28;117504;-80
2024/01/14 01:56:04;;;;;;;11.02;5.68;;;;;;;;;;4979997;28;95386;-81
2024/01/14 01:58:31;;;;;;;10.88;5.57;;;;;;;;;;4983680;28;92168;-79
2024/01/14 02:00:58;;;;;;;;;;;;;;;;;;4980170;28;96612;-79
2024/01/14 02:03:24;;;;;;;10.63;5.40;;;;;;;;;;4982485;28;102217;-79
2024/01/14 02:05:52;;;;;;;10.68;5.60;;;;;;;;;;4980684;28;94600;-80
2024/01/14 02:08:18;;;;;;;;;;;;;;;;;;4981233;28;95196;-79
2024/01/14 02:10:45;;;;;;;10.85;5.50;;;;;;;;;;4983174;28;98641;-79
2024/01/14 02:13:11;;;;;;;9.68;5.20;;;;;;;;;;4965693;28;92403;-79
2024/01/14 02:15:38;;;;;;;14.40;5.43;;;;;;;;;;4980207;28;94841;-80
2024/01/14 02:18:05;;;;;;;10.88;5.15;;;;;;;;;;4982546;28;91431;-81
2024/01/14 02:20:32;;;;;;;9.38;5.35;;;;;;;;;;4983465;28;92232;-79
2024/01/14 02:22:59;;;;;;;10.98;5.75;;;;;;;;;;4963633;28;92246;-79
2024/01/14 02:25:26;;;;;;;11.15;5.43;;;;;;;;;;4978943;28;95308;-80
2024/01/14 02:27:52;;;;;;;10.57;5.43;;;;;;;;;;4984570;28;92505;-78
2024/01/14 02:30:19;;;;;;;10.80;5.35;;;;;;;;;;4984321;28;92343;-79
2024/01/14 02:32:48;;;;;;;9.90;5.13;;;;;;;;;;4982863;28;98808;-79
2024/01/14 02:35:15;;;;;;;10.15;5.28;;;;;;;;;;4983012;28;95456;-79
2024/01/14 02:37:44;;;;;;;9.52;4.60;;;;;;;;;;4984415;28;92522;-79
2024/01/14 02:40:11;;;;;;;10.38;5.90;;;;;;;;;;4984285;28;93724;-79
2024/01/14 02:42:38;;;;;;;10.07;4.75;;;;;;;;;;4986886;28;92114;-79
2024/01/14 02:45:05;;;;;;;11.68;4.95;;;;;;;;;;4982946;28;94462;-79
2024/01/14 02:47:31;;;;;;;11.52;5.13;;;;;;;;;;4984183;28;93287;-79
2024/01/14 02:49:58;;;;;;;11.57;5.63;;;;;;;;;;4982394;28;94749;-80
2024/01/14 02:52:25;;;;;;;9.88;5.10;;;;;;;;;;4982182;28;94810;-80
2024/01/14 02:54:51;;;;;;;11.02;5.13;;;;;;;;;;4982758;28;92825;-79
2024/01/14 02:57:18;;;;;;;11.45;5.43;;;;;;;;;;4982590;28;92217;-80
2024/01/14 02:59:45;;;;;;;10.48;4.95;;;;;;;;;;4966489;28;95101;-80
2024/01/14 03:02:11;;;;;;;9.82;5.05;;;;;;;;;;4984078;28;92817;-78
2024/01/14 03:04:38;;;;;;;11.15;5.38;;;;;;;;;;4986643;28;92344;-78
2024/01/14 03:07:04;;;;;;;11.23;5.40;;;;;;;;;;4984306;28;91963;-78
2024/01/14 03:09:31;;;;;;;10.07;5.30;;;;;;;;;;4982866;28;92165;-78
2024/01/14 03:11:57;;;;;;;10.35;5.45;;;;;;;;;;4995048;28;93098;-77
2024/01/14 03:14:24;;;;;;;10.82;5.10;;;;;;;;;;4999628;28;101535;-79
2024/01/14 03:16:50;;;;;;;10.20;5.30;;;;;;;;;;5002813;28;92152;-78
2024/01/14 03:19:17;;;;;;;9.32;4.93;;;;;;;;;;4987707;28;92324;-79
2024/01/14 03:21:44;;;;;;;13.57;5.25;;;;;;;;;;4982250;28;99332;-79
2024/01/14 03:24:10;;;;;;;12.27;5.72;;;;;;;;;;4984871;28;92761;-80
2024/01/14 03:26:37;;;;;;;11.63;5.68;;;;;;;;;;4986247;28;93171;-79
2024/01/14 03:29:04;;;;;;;12.80;4.97;;;;;;;;;;4983682;28;92566;-79
2024/01/14 03:31:31;;;;;;;12.45;5.45;;;;;;;;;;4983205;28;95188;-78
2024/01/14 03:33:58;;;;;;;10.50;5.25;;;;;;;;;;4982547;28;93019;-81
2024/01/14 03:36:24;;;;;;;10.68;5.90;;;;;;;;;;4974428;28;92150;-81
2024/01/14 03:38:51;;;;;;;10.32;5.05;;;;;;;;;;4982751;28;94776;-79
2024/01/14 03:41:18;;;;;;;11.07;5.30;;;;;;;;;;4982483;28;92830;-79
2024/01/14 03:43:44;;;;;;;11.25;5.75;;;;;;;;;;4982945;28;93549;-80
2024/01/14 03:46:11;;;;;;;15.98;5.60;;;;;;;;;;4986751;28;92508;-80
2024/01/14 03:48:37;;;;;;;13.95;5.20;;;;;;;;;;4982765;28;92612;-79
2024/01/14 03:51:04;;;;;;;12.40;5.78;;;;;;;;;;4962345;28;94920;-79
2024/01/14 03:53:31;;;;;;;11.65;5.80;;;;;;;;;;4962654;28;95341;-79
2024/01/14 03:55:57;;;;;;;12.82;5.65;;;;;;;;;;4970947;28;92073;-79
2024/01/14 03:58:24;;;;;;;10.48;5.40;;;;;;;;;;4983046;28;92477;-78
2024/01/14 04:00:51;;;;;;;11.32;5.47;;;;;;;;;;4983382;28;92745;-79
2024/01/14 04:03:17;;;;;;;11.25;5.78;;;;;;;;;;4981502;28;94481;-79
2024/01/14 04:05:44;;;;;;;12.82;5.47;;;;;;;;;;4981647;28;97218;-79
2024/01/14 04:08:10;;;;;;;9.90;5.47;;;;;;;;;;4986311;28;93539;-80
2024/01/14 04:10:37;;;;;;;11.45;5.78;;;;;;;;;;4982912;28;92638;-79
2024/01/14 04:13:03;;;;;;;12.20;5.60;;;;;;;;;;4946253;28;95130;-79
2024/01/14 04:15:30;;;;;;;11.35;5.55;;;;;;;;;;4964180;28;92093;-79
2024/01/14 04:17:56;;;;;;;11.27;5.88;;;;;;;;;;4977480;28;94034;-79
2024/01/14 04:20:23;;;;;;;10.15;5.43;;;;;;;;;;4983065;28;93231;-79
2024/01/14 04:22:50;;;;;;;11.88;5.60;;;;;;;;;;4982432;28;92578;-78
2024/01/14 04:25:16;;;;;;;12.38;5.43;;;;;;;;;;4981948;28;94266;-79
2024/01/14 04:27:43;;;;;;;11.38;5.28;;;;;;;;;;4981555;28;95669;-79
2024/01/14 04:30:10;;;;;;;11.98;5.75;;;;;;;;;;4986295;28;92398;-79
2024/01/14 04:32:37;;;;;;;10.07;5.43;;;;;;;;;;4982100;28;92811;-77
2024/01/14 04:35:04;;;;;;;11.93;6.00;;;;;;;;;;4966413;28;92402;-78
2024/01/14 04:37:31;;;;;;;10.57;6.03;;;;;;;;;;4982051;28;95291;-80
2024/01/14 04:39:57;;;;;;;11.13;5.85;;;;;;;;;;4972504;28;93155;-80
2024/01/14 04:42:24;;;;;;;10.50;5.60;;;;;;;;;;4981575;28;92126;-81
2024/01/14 04:44:50;;;;;;;10.40;5.20;;;;;;;;;;4982684;28;95291;-77
2024/01/14 04:47:17;;;;;;;12.18;5.95;;;;;;;;;;4982568;28;92791;-77
2024/01/14 04:49:44;;;;;;;12.15;6.10;;;;;;;;;;4980364;28;92348;-77
2024/01/14 04:52:10;;;;;;;12.63;5.68;;;;;;;;;;4984672;28;94733;-77
2024/01/14 04:54:37;;;;;;;12.75;6.32;;;;;;;;;;4981568;28;92336;-78
2024/01/14 04:57:03;;;;;;;13.57;7.10;;;;;;;;;;4982585;28;92800;-77
2024/01/14 04:59:30;;;;;;;10.32;5.35;;;;;;;;;;4982667;28;92538;-78
2024/01/14 05:01:56;;;;;;;11.48;6.20;;;;;;;;;;4982213;28;92156;-77
2024/01/14 05:04:23;;;;;;;10.77;5.65;;;;;;;;;;4981537;28;92476;-80
2024/01/14 05:06:49;;;;;;;11.68;6.43;;;;;;;;;;4982270;28;92619;-78
2024/01/14 05:09:17;;;;;;;17.40;5.80;;;;;;;;;;4982947;28;91476;-78
2024/01/14 05:11:43;;;;;;;13.73;6.30;;;;;;;;;;4991369;28;92255;-79
2024/01/14 05:14:10;;;;;;;13.95;5.80;;;;;;;;;;5000611;27;92817;-78
2024/01/14 05:16:37;;;;;;;11.73;5.90;;;;;;;;;;4980402;28;95051;-78
2024/01/14 05:19:03;;;;;;;12.88;6.18;;;;;;;;;;4980233;28;95392;-78
2024/01/14 05:21:30;;;;;;;11.98;6.43;;;;;;;;;;4982375;28;92019;-78
2024/01/14 05:23:56;;;;;;;16.27;6.93;;;;;;;;;;4981072;28;92240;-78
2024/01/14 05:26:24;;;;;;;11.90;6.13;;;;;;;;;;4981609;28;93363;-79
2024/01/14 05:28:51;;;;;;;13.27;6.15;;;;;;;;;;4982302;28;92082;-78
2024/01/14 05:31:17;;;;;;;11.32;6.28;;;;;;;;;;4981950;28;92689;-79
2024/01/14 05:33:44;;;;;;;12.27;6.25;;;;;;;;;;4982533;28;97582;-80
2024/01/14 05:36:11;;;;;;;12.52;6.95;;;;;;;;;;4983976;28;92103;-79
2024/01/14 05:38:37;;;;;;;11.57;6.15;;;;;;;;;;4978656;28;93280;-79
2024/01/14 05:41:04;;;;;;;12.38;6.32;;;;;;;;;;4978551;28;94805;-78
2024/01/14 05:43:30;;;;;;;11.98;5.75;;;;;;;;;;4980702;28;94886;-80
2024/01/14 05:45:57;;;;;;;14.27;6.05;;;;;;;;;;4981081;28;92657;-80
2024/01/14 05:48:23;;;;;;;11.27;6.10;;;;;;;;;;4978296;28;92172;-80
2024/01/14 05:50:50;;;;;;;13.98;7.05;;;;;;;;;;4980744;28;93247;-80
2024/01/14 05:53:17;;;;;;;12.02;6.38;;;;;;;;;;4978956;28;95201;-80
2024/01/14 05:55:43;;;;;;;12.95;6.40;;;;;;;;;;4984299;28;92408;-79
2024/01/14 05:58:10;;;;;;;11.73;6.20;;;;;;;;;;4980635;28;91992;-79
2024/01/14 06:00:36;;;;;;;11.52;5.93;;;;;;;;;;4980042;28;92231;-78
2024/01/14 06:03:03;;;;;;;11.48;6.40;;;;;;;;;;4963561;28;94155;-78
2024/01/14 06:05:30;;;;;;;12.35;6.30;;;;;;;;;;4980239;28;95982;-78
2024/01/14 06:07:56;;;;;;;12.30;6.22;;;;;;;;;;4963852;28;92692;-78
2024/01/14 06:10:23;;;;;;;13.18;6.63;;;;;;;;;;4979229;28;92532;-78
2024/01/14 06:12:49;;;;;;;13.45;6.50;;;;;;;;;;4998347;28;93570;-78
2024/01/14 06:15:16;;;;;;;13.02;6.93;;;;;;;;;;4967164;28;92522;-79
2024/01/14 06:17:42;;;;;;;11.40;6.30;;;;;;;;;;4983597;28;92387;-78
2024/01/14 06:20:10;;;;;;;14.75;7.05;;;;;;;;;;4981584;28;92139;-78
2024/01/14 06:22:37;;;;;;;12.05;6.63;;;;;;;;;;4980949;28;92564;-77
2024/01/14 06:25:04;;;;;;;13.05;6.32;;;;;;;;;;4979274;28;95304;-79
2024/01/14 06:27:30;;;;;;;13.57;6.55;;;;;;;;;;4979836;28;91984;-79
2024/01/14 06:29:57;;;;;;;12.15;6.75;;;;;;;;;;4979501;28;94497;-78
2024/01/14 06:32:24;;;;;;;12.95;7.40;;;;;;;;;;4978387;28;94389;-78
2024/01/14 06:34:50;;;;;;;10.80;5.88;;;;;;;;;;4976496;28;92259;-79
2024/01/14 06:37:17;;;;;;;11.70;6.22;;;;;;;;;;4961761;28;92766;-79
2024/01/14 06:39:43;;;;;;;12.98;6.43;;;;;;;;;;4974443;28;92657;-78
2024/01/14 06:42:10;;;;;;;11.98;6.82;;;;;;;;;;4961497;28;92859;-79
2024/01/14 06:44:38;;;;;;;12.52;6.55;;;;;;;;;;4960612;28;92838;-79
2024/01/14 06:47:05;;;;;;;12.20;6.65;;;;;;;;;;4961891;28;92057;-79
2024/01/14 06:49:31;;;;;;;12.57;7.03;;;;;;;;;;4975203;28;92234;-79
2024/01/14 06:51:58;;;;;;;13.32;6.80;;;;;;;;;;4959234;28;92356;-78
2024/01/14 06:54:24;;;;;;;12.50;6.65;;;;;;;;;;4976402;28;94981;-79
2024/01/14 06:56:51;;;;;;;12.93;6.68;;;;;;;;;;4978548;28;97546;-78
2024/01/14 06:59:18;;;;;;;12.00;6.20;;;;;;;;;;4979714;28;92714;-79
2024/01/14 07:01:48;;;;;;;14.63;7.15;;;;;;;;;;4984071;28;92528;-79
2024/01/14 07:04:15;;;;;;;14.10;7.20;;;;;;;;;;4979111;28;92687;-80
2024/01/14 07:06:42;;;;;;;12.82;7.30;;;;;;;;;;4977789;28;92186;-78
2024/01/14 07:09:10;;;;;;;11.77;6.75;;;;;;;;;;4980627;28;92640;-78
2024/01/14 07:11:37;;;;;;;12.02;6.88;;;;;;;;;;4989240;28;91956;-79
2024/01/14 07:14:04;;;;;;;13.10;6.40;;;;;;;;;;4979792;28;92395;-77
2024/01/14 07:16:31;;;;;;;12.20;6.70;;;;;;;;;;4965467;28;95516;-78
2024/01/14 07:18:58;;;;;;;15.95;7.30;;;;;;;;;;4979712;28;97756;-78
2024/01/14 07:21:25;;;;;;;14.82;7.75;;;;;;;;;;4981589;28;92661;-78
2024/01/14 07:23:52;;;;;;;14.23;7.50;;;;;;;;;;4986105;28;92575;-78
2024/01/14 07:26:19;;;;;;;12.50;7.32;;;;;;;;;;4982031;28;92022;-78
2024/01/14 07:28:52;;;;;;;14.32;7.55;;;;;;;;;;4981658;28;99550;-78
2024/01/14 07:31:22;;;;;;;11.73;6.55;;;;;;;;;;4983108;28;94143;-78
2024/01/14 07:33:50;;;;;;;13.38;7.30;;;;;;;;;;4983087;28;99155;-81
2024/01/14 07:36:17;;;;;;;;;;;;;;;;;;4982320;28;93564;-78
2024/01/14 07:38:44;;;;;;;12.95;6.95;;;;;;;;;;4965924;28;103106;-78
2024/01/14 07:41:12;;;;;;;13.30;7.28;;;;;;;;;;4983485;28;92163;-79
2024/01/14 07:43:39;;;;;;;13.10;6.97;;;;;;;;;;4980528;28;95164;-78
2024/01/14 07:46:06;;;;;;;13.52;7.05;;;;;;;;;;4985148;28;95210;-79
2024/01/14 07:48:34;;;;;;;14.75;7.45;;;;;;;;;;4980048;28;94768;-78
2024/01/14 07:51:01;;;;;;;13.80;6.93;;;;;;;;;;4982741;28;92702;-78
2024/01/14 07:53:28;;;;;;;12.80;6.97;;;;;;;;;;4981757;28;92251;-79
2024/01/14 07:55:54;;;;;;;12.52;7.13;;;;;;;;;;4982958;28;92261;-78
2024/01/14 07:58:21;;;;;;;13.98;7.07;;;;;;;;;;4980511;28;95010;-80
2024/01/14 08:00:47;;;;;;;21.10;7.47;;;;;;;;;;4981857;28;91545;-81
2024/01/14 08:03:27;;;;;;;15.68;6.72;;;;;;;;;;4981795;28;92411;-81
2024/01/14 08:05:54;;;;;;;14.52;7.03;;;;;;;;;;4984158;28;95160;-79
2024/01/14 08:08:21;;;;;;;13.85;7.00;;;;;;;;;;4980510;28;94584;-80
2024/01/14 08:10:48;;;;;;;15.25;6.68;;;;;;;;;;4983184;28;92766;-79
2024/01/14 08:13:15;;;;;;;11.20;6.38;;;;;;;;;;5002279;27;92044;-79
2024/01/14 08:15:41;;;;;;;12.63;6.65;;;;;;;;;;4983847;28;95428;-80
2024/01/14 08:18:26;;;;;;;15.05;7.03;;;;;;;;;;4982570;28;94093;-78
2024/01/14 08:20:53;;;;;;;13.15;6.47;;;;;;;;;;4980203;28;92344;-78
2024/01/14 08:23:19;;;;;;;12.30;6.47;;;;;;;;;;4980859;28;94329;-78
2024/01/14 08:25:46;;;;;;;11.18;6.22;;;;;;;;;;4982174;28;91435;-78
2024/01/14 08:28:13;;;;;;;12.38;6.15;;;;;;;;;;4984900;28;92191;-79
2024/01/14 08:30:40;;;;;;;11.13;5.72;;;;;;;;;;4979137;28;93080;-80
2024/01/14 08:33:07;;;;;;;10.57;5.93;;;;;;;;;;4978919;28;94663;-80
2024/01/14 08:35:34;;;;;;;10.27;5.38;;;;;;;;;;4971144;28;95877;-81
2024/01/14 08:38:00;;;;;;;9.85;5.40;;;;;;;;;;4965208;28;92741;-80
2024/01/14 08:40:27;;;;;;;10.43;5.95;;;;;;;;;;4979326;28;92377;-79
2024/01/14 08:42:53;;;;;;;10.43;5.72;;;;;;;;;;4981832;28;94026;-80
2024/01/14 08:45:20;;;;;;;10.98;5.45;;;;;;;;;;4979838;28;95068;-80
2024/01/14 08:47:46;;;;;;;9.48;5.70;;;;;;;;;;4981549;28;92272;-80
2024/01/14 08:50:15;;;;;;;10.55;5.75;;;;;;;;;;4983721;28;93222;-80
2024/01/14 08:52:42;;;;;;;10.23;5.43;;;;;;;;;;4980844;28;92219;-81
2024/01/14 08:55:09;;;;;;;9.48;5.43;;;;;;;;;;4963657;28;95283;-80
2024/01/14 08:57:36;;;;;;;9.98;5.40;;;;;;;;;;4978560;28;95008;-80
2024/01/14 09:00:04;;;;;;;9.65;5.35;;;;;;;;;;4981202;28;92031;-80
2024/01/14 09:02:30;;;;;;;9.57;4.95;;;;;;;;;;4980914;28;92971;-80
2024/01/14 09:04:57;;;;;;;10.82;5.80;;;;;;;;;;4980307;28;93245;-81
2024/01/14 09:07:24;;;;;;;10.70;5.53;;;;;;;;;;4981089;28;92148;-82
2024/01/14 09:09:51;;;;;;;11.10;5.38;;;;;;;;;;4979956;28;95096;-81
2024/01/14 09:12:18;;;;;;;10.43;5.45;;;;;;;;;;4997558;28;92564;-82
2024/01/14 09:14:44;;;;;;;10.73;5.65;;;;;;;;;;4979924;28;96715;-80
2024/01/14 09:17:11;;;;;;;10.95;5.60;;;;;;;;;;4979639;28;95194;-80
2024/01/14 09:19:38;;;;;;;10.77;5.20;;;;;;;;;;4980529;28;92222;-82
2024/01/14 09:22:05;;;;;;;10.02;4.80;;;;;;;;;;4962458;28;94981;-83
2024/01/14 09:24:32;;;;;;;10.60;5.25;;;;;;;;;;4981160;28;92756;-82
2024/01/14 09:26:59;;;;;;;9.70;4.80;;;;;;;;;;4981392;28;92188;-82
2024/01/14 09:29:25;;;;;;;8.23;4.72;;;;;;;;;;4981838;28;92490;-82
2024/01/14 09:31:52;;;;;;;9.13;5.03;;;;;;;;;;4982121;28;92682;-82
2024/01/14 09:34:18;;;;;;;10.38;5.20;;;;;;;;;;4983686;28;92103;-81
2024/01/14 09:36:45;;;;;;;8.35;4.78;;;;;;;;;;4960717;28;97546;-81
2024/01/14 09:39:13;;;;;;;10.43;5.07;;;;;;;;;;4975067;28;91899;-83
2024/01/14 09:41:43;;;;;;;9.25;4.93;;;;;;;;;;4963638;28;94495;-82
2024/01/14 09:44:13;;;;;;;9.40;4.68;;;;;;;;;;4980667;28;94463;-82
2024/01/14 09:46:40;;;;;;;8.88;5.10;;;;;;;;;;4978661;28;94979;-80
2024/01/14 09:49:07;;;;;;;10.18;4.90;;;;;;;;;;4979778;28;97573;-82
2024/01/14 09:51:40;;;;;;;8.63;4.40;;;;;;;;;;4980171;28;95540;-82
2024/01/14 09:54:07;;;;;;;12.48;4.43;;;;;;;;;;4980020;28;92257;-85
2024/01/14 09:56:34;;;;;;;9.30;4.28;;;;;;;;;;4982304;28;92750;-84
2024/01/14 09:59:01;;;;;;;9.27;4.47;;;;;;;;;;4980665;28;92380;-84
2024/01/14 10:01:32;;;;;;;10.45;4.50;;;;;;;;;;4981520;28;92536;-79
2024/01/14 10:04:03;;;;;;;8.70;4.65;;;;;;;;;;4980667;28;92909;-80
2024/01/14 10:06:30;;;;;;;14.55;4.40;;;;;;;;;;4981010;28;92546;-82
2024/01/14 10:08:57;;;;;;;11.98;4.80;;;;;;;;;;4982390;28;92815;-83
2024/01/14 10:11:25;;;;;;;26.55;5.28;;;;;;;;;;4986446;28;94481;-85
2024/01/14 10:13:52;;;;;;;12.07;4.55;;;;;;;;;;5000871;28;92543;-85
2024/01/14 10:16:19;;;;;;;16.65;4.47;;;;;;;;;;5004922;27;92021;-82
2024/01/14 10:19:09;;;;;;;14.75;5.25;;;;;;;;;;4960941;28;92238;-82
2024/01/14 10:21:36;;;;;;;12.68;5.03;;;;;;;;;;4961164;28;92280;-83
2024/01/14 10:24:04;;;;;;;10.73;4.63;;;;;;;;;;4968401;28;95158;-83
2024/01/14 10:26:31;;;;;;;13.50;5.22;;;;;;;;;;4978867;28;92173;-83
2024/01/14 10:29:03;;;;;;;13.07;5.10;;;;;;;;;;4980953;28;92881;-83
2024/01/14 10:31:30;;;;;;;11.32;4.63;;;;;;;;;;4981407;28;93210;-82
2024/01/14 10:34:00;;;;;;;9.20;4.13;;;;;;;;;;4981746;28;92586;-83
2024/01/14 10:36:28;;;;;;;11.93;4.82;;;;;;;;;;4960099;28;95067;-84
2024/01/14 10:39:02;;;;;;;11.40;4.75;;;;;;;;;;4978092;28;93757;-84
2024/01/14 10:41:29;;;;;;;10.13;4.95;;;;;;;;;;4962436;28;92391;-83
2024/01/14 10:43:56;;;;;;;15.55;5.13;;;;;;;;;;4961672;28;94152;-83
2024/01/14 10:46:23;;;;;;;11.63;5.10;;;;;;;;;;4960765;28;92407;-84
2024/01/14 10:48:51;;;;;;;10.65;4.43;;;;;;;;;;4963817;28;97933;-83
2024/01/14 10:51:20;;;;;;;10.75;4.95;;;;;;;;;;4967002;28;92984;-86
2024/01/14 10:53:52;;;;;;;9.30;4.93;;;;;;;;;;4984270;28;91503;-85
2024/01/14 10:56:22;;;;;;;9.75;4.57;;;;;;;;;;4972527;28;94288;-85
2024/01/14 10:58:50;;;;;;;11.07;4.53;;;;;;;;;;4973361;28;99936;-85
2024/01/14 11:01:18;;;;;;;10.90;4.78;;;;;;;;;;4986659;28;94591;-85
2024/01/14 11:03:45;;;;;;;9.23;4.50;;;;;;;;;;4966658;28;94811;-84
2024/01/14 11:06:18;;;;;;;8.95;4.50;;;;;;;;;;4985786;28;92077;-85
2024/01/14 11:08:45;;;;;;;9.02;4.38;;;;;;;;;;4966555;28;99428;-85
2024/01/14 11:11:13;;;;;;;8.75;4.50;;;;;;;;;;4987368;28;92505;-85
2024/01/14 11:13:55;;;;;;;9.45;4.40;;;;;;;;;;4996142;27;92545;-85
2024/01/14 11:16:23;;;;;;;7.60;3.92;;;;;;;;;;4985377;28;92159;-84
2024/01/14 11:18:58;;;;;;;10.25;4.88;;;;;;;;;;4985331;28;93743;-85
2024/01/14 11:21:43;;;;;;;9.52;4.55;;;;;;;;;;4983887;28;92178;-88
2024/01/14 11:24:30;;;;;;;10.48;4.68;;;;;;;;;;4985951;28;92596;-86
2024/01/14 11:26:57;;;;;;;10.15;4.43;;;;;;;;;;4981999;28;94614;-86
2024/01/14 11:29:31;;;;;;;10.98;4.72;;;;;;;;;;4984424;28;94828;-85
2024/01/14 11:32:08;;;;;;;11.55;5.05;;;;;;;;;;4983026;28;95664;-87
2024/01/14 11:34:47;;;;;;;10.07;4.47;;;;;;;;;;4981518;28;92410;-87
2024/01/14 11:37:30;;;;;;;10.27;4.40;;;;;;;;;;4964456;28;92456;-87
2024/01/14 11:40:06;;;;;;;11.43;4.63;;;;;;;;;;4974419;28;95471;-85
2024/01/14 11:42:37;;;;;;;11.32;5.15;;;;;;;;;;4961519;28;92262;-84
2024/01/14 11:45:13;;;;;;;11.15;4.95;;;;;;;;;;4962436;28;92520;-85
2024/01/14 11:47:45;;;;;;;11.18;5.40;;;;;;;;;;4950137;28;95004;-84
2024/01/14 11:50:14;;;;;;;11.27;5.60;;;;;;;;;;4982180;28;92431;-84
2024/01/14 11:52:41;;;;;;;10.73;4.70;;;;;;;;;;4978906;28;97887;-86
2024/01/14 11:55:12;;;;;;;9.82;4.40;;;;;;;;;;4965818;28;92595;-84
2024/01/14 11:57:38;;;;;;;9.13;4.35;;;;;;;;;;4981387;28;92807;-84
2024/01/14 12:00:12;;;;;;;9.13;4.22;;;;;;;;;;4964483;28;95419;-85
2024/01/14 12:02:45;;;;;;;10.02;3.55;;;;;;;;;;4970794;28;92349;-85
2024/01/14 12:05:24;;;;;;;9.65;4.55;;;;;;;;;;4982450;28;92794;-83
2024/01/14 12:07:53;;;;;;;8.43;3.67;;;;;;;;;;4980939;28;92618;-86
2024/01/14 12:10:19;;;;;;;8.50;3.97;;;;;;;;;;4985719;28;97279;-81
2024/01/14 12:12:46;;;;;;;8.73;3.70;;;;;;;;;;5011588;28;95494;-82
2024/01/14 12:15:14;;;;;;;8.13;3.13;;;;;;;;;;4978681;28;92633;-81
2024/01/14 12:17:52;;;;;;;8.30;3.20;;;;;;;;;;4977064;28;94512;-82
2024/01/14 12:20:21;;;;;;;8.70;3.55;;;;;;;;;;4982662;28;92711;-81
2024/01/14 12:22:54;;;;;;;8.38;3.83;;;;;;;;;;4980959;28;93401;-81
2024/01/14 12:25:23;;;;;;;9.10;3.67;;;;;;;;;;4981464;28;92788;-82
2024/01/14 12:27:55;;;;;;;10.05;3.78;;;;;;;;;;4982627;28;92736;-80
2024/01/14 12:30:23;;;;;;;8.30;4.03;;;;;;;;;;4983063;28;92455;-79
2024/01/14 12:32:49;;;;;;;8.98;4.32;;;;;;;;;;4981484;28;93693;-80
2024/01/14 12:35:16;;;;;;;10.00;4.07;;;;;;;;;;4965484;28;92121;-80
2024/01/14 12:37:43;;;;;;;7.63;3.83;;;;;;;;;;4962512;28;92306;-80
2024/01/14 12:40:10;;;;;;;10.70;4.20;;;;;;;;;;4978701;28;95922;-80
2024/01/14 12:42:37;;;;;;;8.68;4.05;;;;;;;;;;4978981;28;94830;-79
2024/01/14 12:45:05;;;;;;;9.00;4.05;;;;;;;;;;4979269;28;98245;-80
2024/01/14 12:47:32;;;;;;;8.80;4.00;;;;;;;;;;4980186;28;92657;-81
2024/01/14 12:49:59;;;;;;;8.75;3.95;;;;;;;;;;4979306;28;92272;-78
2024/01/14 12:52:26;;;;;;;;;;;;;;;;;;4983758;28;94346;-80
2024/01/14 12:54:52;;;;;;;8.65;3.88;;;;;;;;;;4982435;28;95629;-81
2024/01/14 12:57:19;;;;;;;7.18;3.50;;;;;;;;;;4977596;28;94541;-81
2024/01/14 12:59:50;;;;;;;9.65;3.90;;;;;;;;;;4980379;28;92600;-81
2024/01/14 13:02:17;;;;;;;7.90;3.60;;;;;;;;;;4980630;28;92326;-81
2024/01/14 13:04:44;;;;;;;10.63;4.13;;;;;;;;;;4981337;28;92343;-81
2024/01/14 13:07:10;;;;;;;9.32;4.68;;;;;;;;;;4980429;28;95044;-83
2024/01/14 13:09:39;;;;;;;8.82;4.20;;;;;;;;;;4980694;28;92458;-81
2024/01/14 13:12:06;;;;;;;;;;;;;;;;;;4991227;28;92754;-81
2024/01/14 13:14:33;;;;;;;9.05;4.53;;;;;;;;;;4986734;28;92804;-81
2024/01/14 13:16:59;;;;;;;8.45;4.35;;;;;;;;;;4983243;28;98636;-82
2024/01/14 13:19:26;;;;;;;9.38;4.50;;;;;;;;;;4982384;28;92627;-82
2024/01/14 13:21:53;;;;;;;8.82;4.25;;;;;;;;;;4980899;28;92093;-81
2024/01/14 13:24:20;;;;;;;8.65;4.43;;;;;;;;;;4983215;28;92366;-83
2024/01/14 13:26:47;;;;;;;8.88;4.53;;;;;;;;;;4964933;28;96023;-82
2024/01/14 13:29:13;;;;;;;9.52;4.30;;;;;;;;;;4981198;28;92358;-82
2024/01/14 13:31:41;;;;;;;9.05;4.30;;;;;;;;;;4980810;28;94739;-82
2024/01/14 13:34:09;;;;;;;8.90;4.22;;;;;;;;;;4980196;28;94950;-80
2024/01/14 13:36:35;;;;;;;9.30;4.07;;;;;;;;;;4965711;28;92459;-81
2024/01/14 13:39:03;;;;;;;8.50;4.20;;;;;;;;;;4972717;28;92698;-81
2024/01/14 13:41:31;;;;;;;8.07;4.20;;;;;;;;;;4975569;28;92296;-81
2024/01/14 13:43:57;;;;;;;8.23;4.18;;;;;;;;;;4980625;28;95367;-81
2024/01/14 13:46:42;;;;;;;9.70;4.50;;;;;;;;;;4981240;28;93110;-81
2024/01/14 13:49:09;;;;;;;8.15;4.22;;;;;;;;;;4981715;28;91624;-82
2024/01/14 13:51:36;;;;;;;;;;;;;;;;;;4981328;28;92173;-82
2024/01/14 13:54:02;;;;;;;9.10;4.10;;;;;;;;;;4981782;28;95070;-82
2024/01/14 13:56:39;;;;;;;8.10;4.20;;;;;;;;;;4979229;28;94327;-81
2024/01/14 13:59:08;;;;;;;9.18;4.20;;;;;;;;;;4984953;28;94333;-82
2024/01/14 14:01:36;;;;;;;7.90;4.35;;;;;;;;;;4964123;28;92676;-82
2024/01/14 14:04:04;;;;;;;7.60;4.05;;;;;;;;;;4981839;28;92159;-82
2024/01/14 14:06:35;;;;;;;8.63;4.22;;;;;;;;;;4981699;28;92391;-81
2024/01/14 14:09:02;;;;;;;8.43;4.32;;;;;;;;;;4982821;28;92364;-81
2024/01/14 14:11:29;;;;;;;9.52;4.97;;;;;;;;;;4988936;28;92867;-81
2024/01/14 14:13:58;;;;;;;9.07;4.55;;;;;;;;;;5000476;28;94649;-82
2024/01/14 14:16:25;;;;;;;8.32;4.13;;;;;;;;;;5000621;27;92188;-82
2024/01/14 14:19:06;;;;;;;8.65;4.13;;;;;;;;;;4988298;28;94671;-81
2024/01/14 14:21:33;;;;;;;9.45;4.60;;;;;;;;;;4998493;27;95062;-80
2024/01/14 14:24:20;;;;;;;8.38;4.03;;;;;;;;;;4981013;28;96304;-82
2024/01/14 14:26:46;;;;;;;8.55;4.40;;;;;;;;;;4980770;28;92969;-81
2024/01/14 14:29:13;;;;;;;8.55;4.25;;;;;;;;;;4981706;28;93368;-81
2024/01/14 14:31:40;;;;;;;7.72;4.10;;;;;;;;;;4981701;28;92420;-81
2024/01/14 14:34:17;;;;;;;7.82;4.13;;;;;;;;;;4981494;28;92949;-81
2024/01/14 14:36:45;;;;;;;8.27;4.20;;;;;;;;;;4979671;28;93587;-81
2024/01/14 14:39:12;;;;;;;9.63;4.53;;;;;;;;;;4981330;28;92801;-81